Time;durP1;ratioP1;P1;durP2;ratioP2;P2;SDS_P1;SDS_P2;PMS_P1;PMS_P2;Temp;Humidity;BMP_temperature;BMP_pressure;BME280_temperature;BME280_humidity;BME280_pressure;Samples;Min_cycle;Max_cycle;Signal;HPM_P1;HPM_P2
2023/10/17 00:01:33;;;;;;;539.90;481.50;;;;;;;;;;6220914;23;20003;-95
2023/10/17 00:06:54;;;;;;;536.38;478.58;;;;;;;;;;6258190;23;20011;-92
2023/10/17 00:09:32;;;;;;;381.52;340.08;;;;;;;;;;6220608;23;20434;-95
2023/10/17 00:12:04;;;;;;;466.98;412.73;;;;;;;;;;6221173;23;20013;-94
2023/10/17 00:14:45;;;;;;;423.25;375.67;;;;;;;;;;6197184;23;20012;-92
2023/10/17 00:17:15;;;;;;;362.75;324.23;;;;;;;;;;6220260;23;20079;-94
2023/10/17 00:19:41;;;;;;;364.90;326.10;;;;;;;;;;6221307;23;20078;-92
2023/10/17 00:22:23;;;;;;;331.63;296.73;;;;;;;;;;6220889;23;20023;-93
2023/10/17 00:25:32;;;;;;;341.90;305.63;;;;;;;;;;6221331;23;20000;-93
2023/10/17 00:27:39;;;;;;;302.52;269.55;;;;;;;;;;6236318;23;20004;-94
2023/10/17 00:30:06;;;;;;;257.02;231.23;;;;;;;;;;6220462;23;20433;-95
2023/10/17 00:32:40;;;;;;;265.58;237.27;;;;;;;;;;6220505;23;20004;-94
2023/10/17 00:35:13;;;;;;;320.73;286.15;;;;;;;;;;6220547;23;20018;-94
2023/10/17 00:37:39;;;;;;;219.80;196.07;;;;;;;;;;6221303;23;20298;-94
2023/10/17 00:40:26;;;;;;;299.63;267.48;;;;;;;;;;6220282;23;20273;-95
2023/10/17 00:42:52;;;;;;;271.63;245.23;;;;;;;;;;6247136;23;20008;-94
2023/10/17 00:45:23;;;;;;;319.40;286.30;;;;;;;;;;6220517;23;20384;-94
2023/10/17 00:47:51;;;;;;;290.25;260.88;;;;;;;;;;6220372;23;20012;-93
2023/10/17 00:50:21;;;;;;;271.92;244.38;;;;;;;;;;6220194;23;20012;-92
2023/10/17 00:52:51;;;;;;;252.15;228.02;;;;;;;;;;6220896;23;20315;-94
2023/10/17 00:55:18;;;;;;;304.65;272.83;;;;;;;;;;6220533;23;20087;-92
2023/10/17 00:57:45;;;;;;;278.40;250.25;;;;;;;;;;6221389;23;20008;-94
2023/10/17 01:00:22;;;;;;;260.05;234.48;;;;;;;;;;6220190;23;20011;-95
2023/10/17 01:02:51;;;;;;;246.18;223.68;;;;;;;;;;6220554;23;20024;-92
2023/10/17 01:05:23;;;;;;;248.73;223.00;;;;;;;;;;6220284;23;20008;-93
2023/10/17 01:07:57;;;;;;;245.93;221.68;;;;;;;;;;6221698;23;20004;-93
2023/10/17 01:10:26;;;;;;;256.05;228.93;;;;;;;;;;6235731;23;20055;-93
2023/10/17 01:15:51;;;;;;;231.32;210.88;;;;;;;;;;6229112;23;20327;-93
2023/10/17 01:18:17;;;;;;;260.63;236.07;;;;;;;;;;6220996;23;20008;-93
2023/10/17 01:20:46;;;;;;;246.70;224.55;;;;;;;;;;6220173;23;20000;-93
2023/10/17 01:23:13;;;;;;;259.88;234.23;;;;;;;;;;6220622;23;20009;-94
2023/10/17 01:25:42;;;;;;;232.60;212.30;;;;;;;;;;6220343;23;20030;-93
2023/10/17 01:28:08;;;;;;;242.93;219.25;;;;;;;;;;6221493;23;20004;-93
2023/10/17 01:30:47;;;;;;;240.85;217.90;;;;;;;;;;6222639;23;20016;-93
2023/10/17 01:33:16;;;;;;;250.30;224.93;;;;;;;;;;6223550;23;20008;-95
2023/10/17 01:35:44;;;;;;;284.33;256.05;;;;;;;;;;6222029;23;20098;-94
2023/10/17 01:38:17;;;;;;;259.95;235.95;;;;;;;;;;6222200;23;20398;-93
2023/10/17 01:40:43;;;;;;;216.13;195.35;;;;;;;;;;6237022;23;20429;-93
2023/10/17 01:43:12;;;;;;;226.65;205.07;;;;;;;;;;6240702;23;20541;-93
2023/10/17 01:45:42;;;;;;;295.02;265.98;;;;;;;;;;6222617;23;20000;-94
2023/10/17 01:48:13;;;;;;;275.77;248.52;;;;;;;;;;6221556;23;20004;-95
2023/10/17 01:50:44;;;;;;;255.70;230.40;;;;;;;;;;6222017;23;20062;-94
2023/10/17 01:53:12;;;;;;;246.27;223.52;;;;;;;;;;6221536;23;20004;-95
2023/10/17 01:55:45;;;;;;;220.23;199.02;;;;;;;;;;6222014;23;20012;-95
2023/10/17 01:58:17;;;;;;;224.23;200.88;;;;;;;;;;6222029;23;20034;-94
2023/10/17 02:00:43;;;;;;;247.93;225.98;;;;;;;;;;6222007;23;20004;-95
2023/10/17 02:03:12;;;;;;;244.75;220.63;;;;;;;;;;6222260;23;20004;-95
2023/10/17 02:05:38;;;;;;;262.00;237.18;;;;;;;;;;6245402;22;19984;-93
2023/10/17 02:11:13;;;;;;;169.10;152.48;;;;;;;;;;6257387;23;20099;-95
2023/10/17 02:13:48;;;;;;;226.52;204.40;;;;;;;;;;6226391;23;20018;-94
2023/10/17 02:16:17;;;;;;;206.52;186.98;;;;;;;;;;6222500;23;20004;-95
2023/10/17 02:18:46;;;;;;;228.30;205.85;;;;;;;;;;6221622;23;20015;-93
2023/10/17 02:21:12;;;;;;;251.63;226.95;;;;;;;;;;6222463;23;20000;-94
2023/10/17 02:23:53;;;;;;;268.95;240.43;;;;;;;;;;6221911;23;20058;-95
2023/10/17 02:26:28;;;;;;;213.98;194.18;;;;;;;;;;6222081;23;20004;-93
2023/10/17 02:29:10;;;;;;;202.35;184.82;;;;;;;;;;6222206;23;20488;-93
2023/10/17 02:31:36;;;;;;;192.95;174.77;;;;;;;;;;6221231;23;20012;-94
2023/10/17 02:34:02;;;;;;;199.85;181.82;;;;;;;;;;6221949;23;20000;-94
2023/10/17 02:36:28;;;;;;;259.40;233.95;;;;;;;;;;6221660;23;20011;-94
2023/10/17 02:39:05;;;;;;;254.82;229.93;;;;;;;;;;6221732;23;20066;-93
2023/10/17 02:41:34;;;;;;;209.00;188.77;;;;;;;;;;6221699;23;20012;-94
2023/10/17 02:44:04;;;;;;;226.25;206.52;;;;;;;;;;6221567;23;20004;-94
2023/10/17 02:46:30;;;;;;;247.55;223.70;;;;;;;;;;6222328;23;20007;-94
2023/10/17 02:48:57;;;;;;;265.88;239.55;;;;;;;;;;6220962;23;20400;-94
2023/10/17 02:54:34;;;;;;;205.27;186.32;;;;;;;;;;6248301;23;20073;-94
2023/10/17 02:56:58;;;;;;;230.38;208.60;;;;;;;;;;6248096;23;20083;-93
2023/10/17 02:59:27;;;;;;;195.43;177.25;;;;;;;;;;6228983;23;20087;-93
2023/10/17 03:01:53;;;;;;;224.15;202.23;;;;;;;;;;6233773;23;20001;-94
2023/10/17 03:04:31;;;;;;;220.98;200.98;;;;;;;;;;6222769;23;20027;-94
2023/10/17 03:07:06;;;;;;;216.05;195.35;;;;;;;;;;6221648;23;20000;-93
2023/10/17 03:09:39;;;;;;;214.40;193.50;;;;;;;;;;6221042;23;20016;-92
2023/10/17 03:17:42;;;;;;;210.20;189.98;;;;;;;;;;6258404;23;20418;-94
2023/10/17 03:20:13;;;;;;;204.18;185.00;;;;;;;;;;6221003;23;20000;-94
2023/10/17 03:22:42;;;;;;;210.65;190.23;;;;;;;;;;6221054;23;20083;-94
2023/10/17 03:25:20;;;;;;;196.23;177.48;;;;;;;;;;6221412;23;20022;-94
2023/10/17 03:27:55;;;;;;;227.15;205.25;;;;;;;;;;6221962;23;20046;-95
2023/10/17 03:30:24;;;;;;;231.38;208.75;;;;;;;;;;6221786;23;20012;-94
2023/10/17 03:33:13;;;;;;;215.90;195.75;;;;;;;;;;6222916;23;20050;-93
2023/10/17 03:38:33;;;;;;;211.60;190.55;;;;;;;;;;6248827;23;20477;-93
2023/10/17 03:41:07;;;;;;;154.68;139.05;;;;;;;;;;6221065;23;20005;-94
2023/10/17 03:44:07;;;;;;;222.45;201.90;;;;;;;;;;6222044;23;20307;-93
2023/10/17 03:46:35;;;;;;;203.70;184.35;;;;;;;;;;6244348;23;20012;-93
2023/10/17 03:49:04;;;;;;;224.80;204.18;;;;;;;;;;6221450;23;20012;-94
2023/10/17 03:51:30;;;;;;;247.63;221.80;;;;;;;;;;6221137;23;20011;-93
2023/10/17 03:54:17;;;;;;;250.55;223.98;;;;;;;;;;6224270;23;20095;-92
2023/10/17 03:56:49;;;;;;;234.00;210.88;;;;;;;;;;6223595;23;20015;-94
2023/10/17 04:02:37;;;;;;;218.75;198.02;;;;;;;;;;6218752;23;20040;-93
2023/10/17 04:05:10;;;;;;;202.38;184.07;;;;;;;;;;6214898;23;20062;-95
2023/10/17 04:07:51;;;;;;;168.70;151.90;;;;;;;;;;6214938;23;20530;-93
2023/10/17 04:10:39;;;;;;;198.95;181.15;;;;;;;;;;6199243;23;20021;-92
2023/10/17 04:13:22;;;;;;;207.13;188.13;;;;;;;;;;6180973;23;20439;-92
2023/10/17 04:15:48;;;;;;;138.15;124.65;;;;;;;;;;6153344;23;20005;-93
2023/10/17 04:18:14;;;;;;;213.40;193.85;;;;;;;;;;6159615;23;20001;-96
2023/10/17 04:20:46;;;;;;;202.77;185.35;;;;;;;;;;6159648;23;20052;-94
2023/10/17 04:23:21;;;;;;;229.40;207.27;;;;;;;;;;6160155;23;20024;-94
2023/10/17 04:25:54;;;;;;;213.05;192.38;;;;;;;;;;6161012;23;20443;-93
2023/10/17 04:28:26;;;;;;;166.15;149.88;;;;;;;;;;6160299;23;20020;-94
2023/10/17 04:31:07;;;;;;;181.52;164.75;;;;;;;;;;6174339;23;20008;-93
2023/10/17 04:33:33;;;;;;;178.43;162.85;;;;;;;;;;6190716;23;20012;-95
2023/10/17 04:35:59;;;;;;;206.15;186.30;;;;;;;;;;6191574;23;20005;-96
2023/10/17 04:44:15;;;;;;;190.73;172.07;;;;;;;;;;6217216;23;20446;-93
2023/10/17 04:46:50;;;;;;;159.15;144.48;;;;;;;;;;6190492;23;20304;-93
2023/10/17 04:49:21;;;;;;;167.77;151.73;;;;;;;;;;6190578;23;20013;-93
2023/10/17 04:52:08;;;;;;;177.73;159.90;;;;;;;;;;6207165;23;20004;-94
2023/10/17 04:54:43;;;;;;;177.52;160.90;;;;;;;;;;6192100;23;20016;-96
2023/10/17 04:57:16;;;;;;;191.10;171.93;;;;;;;;;;6202647;23;20035;-94
2023/10/17 04:59:55;;;;;;;135.10;122.60;;;;;;;;;;6191161;23;20005;-94
2023/10/17 05:05:39;;;;;;;164.13;149.65;;;;;;;;;;6134844;23;20001;-94
2023/10/17 05:09:00;;;;;;;169.00;154.10;;;;;;;;;;6190833;23;20074;-95
2023/10/17 06:18:17;;;;;;;305.60;282.33;;;;;;;;;;6070050;23;20030;-95
2023/10/17 06:26:57;;;;;;;;;;;;;;;;;;;;;
2023/10/17 06:41:38;;;;;;;258.25;238.63;;;;;;;;;;6250461;23;20015;-95
2023/10/17 06:47:31;;;;;;;230.95;213.23;;;;;;;;;;6250260;23;20014;-94
2023/10/17 06:53:27;;;;;;;196.23;181.75;;;;;;;;;;6191946;23;20101;-95
2023/10/17 06:56:17;;;;;;;202.23;187.57;;;;;;;;;;6240224;23;20055;-94
2023/10/17 06:59:45;;;;;;;181.23;167.77;;;;;;;;;;6216529;22;20021;-94
2023/10/17 07:37:22;;;;;;;46.60;43.30;;;;;;;;;;5767849;24;20069;-96
2023/10/17 07:42:45;;;;;;;158.88;147.07;;;;;;;;;;5843885;24;20014;-95
2023/10/17 07:45:15;;;;;;;48.67;45.20;;;;;;;;;;6008056;23;20137;-96
2023/10/17 07:47:51;;;;;;;81.35;73.55;;;;;;;;;;6097963;23;20006;-96
2023/10/17 07:50:20;;;;;;;52.50;48.78;;;;;;;;;;6143721;23;20013;-96
2023/10/17 07:52:59;;;;;;;62.95;58.40;;;;;;;;;;6217655;23;20016;-94
2023/10/17 07:58:06;;;;;;;73.80;68.45;;;;;;;;;;6227406;23;20015;-93
2023/10/17 08:00:36;;;;;;;101.28;93.38;;;;;;;;;;6215696;23;20016;-93
2023/10/17 08:03:14;;;;;;;85.82;79.78;;;;;;;;;;6216104;23;20573;-92
2023/10/17 08:06:05;;;;;;;173.90;160.68;;;;;;;;;;6216483;23;20005;-95
2023/10/17 08:08:46;;;;;;;257.13;236.73;;;;;;;;;;6190856;23;20036;-95
2023/10/17 08:11:31;;;;;;;320.48;293.50;;;;;;;;;;6216076;23;20023;-96
2023/10/17 08:14:18;;;;;;;338.02;310.08;;;;;;;;;;6215826;23;20448;-95
2023/10/17 08:16:49;;;;;;;323.20;296.00;;;;;;;;;;6215926;23;20024;-94
2023/10/17 08:19:22;;;;;;;337.15;310.10;;;;;;;;;;6215507;23;20005;-95
2023/10/17 08:24:14;;;;;;;304.77;279.23;;;;;;;;;;6185477;23;20009;-93
2023/10/17 08:26:49;;;;;;;292.52;270.00;;;;;;;;;;6160243;23;20005;-94
2023/10/17 08:29:20;;;;;;;275.52;254.27;;;;;;;;;;6152210;23;20016;-95
2023/10/17 08:31:46;;;;;;;298.20;273.13;;;;;;;;;;6162443;23;20076;-95
2023/10/17 08:34:14;;;;;;;263.75;243.38;;;;;;;;;;6177846;23;20064;-95
2023/10/17 08:36:53;;;;;;;261.42;241.07;;;;;;;;;;6199953;22;20032;-96
2023/10/17 08:40:29;;;;;;;249.65;230.00;;;;;;;;;;6229015;23;20009;-96
2023/10/17 08:42:12;;;;;;;191.63;177.45;;;;;;;;;;6210614;23;20005;-95
2023/10/17 08:44:39;;;;;;;164.00;152.40;;;;;;;;;;6217231;23;20082;-96
2023/10/17 08:47:07;;;;;;;63.75;59.42;;;;;;;;;;6217140;23;20076;-94
2023/10/17 08:49:33;;;;;;;59.85;55.83;;;;;;;;;;6217673;23;20008;-96
2023/10/17 08:52:03;;;;;;;68.63;63.83;;;;;;;;;;6217901;23;20008;-96
2023/10/17 08:54:53;;;;;;;79.13;73.63;;;;;;;;;;6215671;23;20027;-95
2023/10/17 08:57:25;;;;;;;75.82;70.70;;;;;;;;;;6215673;23;20054;-96
2023/10/17 09:02:32;;;;;;;140.50;129.20;;;;;;;;;;6218154;23;20015;-95
2023/10/17 09:05:29;;;;;;;168.25;155.23;;;;;;;;;;6215303;23;20457;-95
2023/10/17 09:08:11;;;;;;;77.55;72.15;;;;;;;;;;6129438;23;20328;-94
2023/10/17 09:10:43;;;;;;;155.40;143.93;;;;;;;;;;6155081;23;20044;-96
2023/10/17 09:15:57;;;;;;;171.35;157.93;;;;;;;;;;6164943;23;20041;-95
2023/10/17 09:18:40;;;;;;;180.60;166.57;;;;;;;;;;6179118;23;20009;-96
2023/10/17 09:21:44;;;;;;;151.77;140.53;;;;;;;;;;6229865;23;20001;-95
2023/10/17 09:24:40;;;;;;;194.40;178.88;;;;;;;;;;6233423;23;20445;-96
2023/10/17 09:27:15;;;;;;;161.73;149.95;;;;;;;;;;6211526;23;20008;-95
2023/10/17 09:29:52;;;;;;;166.15;153.73;;;;;;;;;;6216302;23;20063;-96
2023/10/17 09:32:37;;;;;;;168.18;156.00;;;;;;;;;;6215311;23;20013;-96
2023/10/17 09:35:18;;;;;;;175.85;162.85;;;;;;;;;;6215857;23;20011;-96
2023/10/17 09:37:51;;;;;;;176.80;161.95;;;;;;;;;;6214309;23;20430;-96
2023/10/17 09:43:16;;;;;;;249.82;227.90;;;;;;;;;;6189603;23;19900;-96
2023/10/17 09:45:50;;;;;;;246.77;226.23;;;;;;;;;;6216988;23;20051;-95
2023/10/17 09:51:05;;;;;;;286.33;263.52;;;;;;;;;;6249063;22;20031;-94
2023/10/17 09:53:41;;;;;;;305.45;279.48;;;;;;;;;;6222771;23;20437;-96
2023/10/17 09:56:16;;;;;;;298.67;275.75;;;;;;;;;;6222250;23;20380;-96
2023/10/17 10:04:43;;;;;;;277.40;254.90;;;;;;;;;;6248627;23;20015;-94
2023/10/17 10:10:43;;;;;;;301.95;277.90;;;;;;;;;;6248292;23;20070;-94
2023/10/17 10:13:13;;;;;;;311.42;284.92;;;;;;;;;;6221894;23;20079;-94
2023/10/17 10:19:19;;;;;;;292.17;268.40;;;;;;;;;;6171452;23;20012;-95
2023/10/17 10:22:06;;;;;;;308.92;283.90;;;;;;;;;;6248021;23;20000;-93
2023/10/17 10:24:45;;;;;;;296.35;273.33;;;;;;;;;;6222874;23;20000;-94
2023/10/17 10:27:29;;;;;;;335.60;308.00;;;;;;;;;;6233079;23;19992;-95
2023/10/17 10:30:17;;;;;;;297.02;273.52;;;;;;;;;;6225783;23;20008;-94
2023/10/17 10:32:44;;;;;;;257.27;237.10;;;;;;;;;;6221907;23;20004;-95
2023/10/17 10:35:11;;;;;;;411.33;373.83;;;;;;;;;;6221697;23;20000;-96
2023/10/17 10:37:57;;;;;;;354.50;323.45;;;;;;;;;;6221348;23;20008;-94
2023/10/17 10:40:39;;;;;;;333.20;305.30;;;;;;;;;;6223088;23;20012;-95
2023/10/17 10:43:18;;;;;;;242.75;224.77;;;;;;;;;;6225413;23;20011;-96
2023/10/17 10:45:55;;;;;;;401.60;365.20;;;;;;;;;;6226802;23;20015;-95
2023/10/17 10:48:32;;;;;;;292.35;269.60;;;;;;;;;;6226605;23;19996;-96
2023/10/17 10:51:05;;;;;;;265.60;245.07;;;;;;;;;;6226162;23;20026;-95
2023/10/17 10:53:39;;;;;;;340.15;311.55;;;;;;;;;;6221880;23;20004;-95
2023/10/17 10:59:02;;;;;;;306.85;281.50;;;;;;;;;;6247500;23;20023;-96
2023/10/17 11:02:03;;;;;;;252.43;230.88;;;;;;;;;;6221399;23;20330;-94
2023/10/17 11:04:38;;;;;;;274.30;253.07;;;;;;;;;;6072742;23;20081;-93
2023/10/17 11:07:26;;;;;;;229.00;211.55;;;;;;;;;;6072211;23;20010;-95
2023/10/17 11:10:03;;;;;;;268.00;245.93;;;;;;;;;;6072537;23;20022;-95
2023/10/17 11:12:31;;;;;;;277.42;256.80;;;;;;;;;;6073834;23;20089;-96
2023/10/17 11:15:18;;;;;;;305.10;279.58;;;;;;;;;;6125070;23;20016;-94
2023/10/17 11:17:45;;;;;;;297.02;271.35;;;;;;;;;;6221803;23;20083;-93
2023/10/17 11:20:35;;;;;;;288.45;264.80;;;;;;;;;;6220415;23;20052;-95
2023/10/17 11:23:26;;;;;;;299.67;274.20;;;;;;;;;;6221026;23;20022;-95
2023/10/17 11:26:03;;;;;;;299.30;275.85;;;;;;;;;;6213650;23;20010;-94
2023/10/17 11:28:42;;;;;;;284.48;260.98;;;;;;;;;;6220931;23;20008;-94
2023/10/17 11:31:12;;;;;;;323.92;296.98;;;;;;;;;;6220922;23;20374;-95
2023/10/17 11:36:48;;;;;;;377.35;343.40;;;;;;;;;;6226382;22;20028;-95
2023/10/17 11:39:24;;;;;;;354.80;324.35;;;;;;;;;;6236823;23;20011;-95
2023/10/17 11:41:54;;;;;;;424.25;386.50;;;;;;;;;;6228983;23;20504;-94
2023/10/17 11:44:31;;;;;;;344.08;314.33;;;;;;;;;;6222543;23;20079;-95
2023/10/17 11:47:21;;;;;;;263.48;243.73;;;;;;;;;;6223160;23;20008;-94
2023/10/17 11:49:49;;;;;;;262.27;242.30;;;;;;;;;;6220629;23;20047;-94
2023/10/17 11:52:16;;;;;;;336.63;307.17;;;;;;;;;;6220465;23;20007;-94
2023/10/17 11:55:00;;;;;;;398.42;363.70;;;;;;;;;;6222012;23;20434;-95
2023/10/17 11:57:31;;;;;;;276.40;256.08;;;;;;;;;;6221416;23;20004;-94
2023/10/17 12:00:35;;;;;;;530.25;477.15;;;;;;;;;;6221197;23;20005;-95
2023/10/17 12:09:25;;;;;;;534.65;484.55;;;;;;;;;;6096588;23;20016;-94
2023/10/17 12:11:52;;;;;;;303.20;279.73;;;;;;;;;;6191004;23;20012;-96
2023/10/17 12:14:22;;;;;;;282.20;261.20;;;;;;;;;;6221496;23;20012;-93
2023/10/17 12:16:49;;;;;;;343.25;312.75;;;;;;;;;;6221046;23;20004;-93
2023/10/17 12:19:21;;;;;;;303.80;280.67;;;;;;;;;;6221374;23;20004;-96
2023/10/17 12:25:17;;;;;;;371.42;338.42;;;;;;;;;;6100289;23;20010;-95
2023/10/17 12:27:49;;;;;;;293.95;270.90;;;;;;;;;;6073422;23;20038;-94
2023/10/17 12:30:59;;;;;;;327.35;301.35;;;;;;;;;;6219386;23;20044;-94
2023/10/17 12:33:11;;;;;;;300.50;278.25;;;;;;;;;;6227793;23;20008;-95
2023/10/17 12:35:46;;;;;;;353.98;322.77;;;;;;;;;;6221034;23;20012;-95
2023/10/17 12:38:24;;;;;;;265.63;245.70;;;;;;;;;;6221434;23;20012;-96
2023/10/17 12:40:58;;;;;;;388.25;351.52;;;;;;;;;;6220623;23;20007;-92
2023/10/17 12:43:24;;;;;;;246.20;228.25;;;;;;;;;;6225125;23;20007;-95
2023/10/17 12:45:51;;;;;;;299.48;275.58;;;;;;;;;;6226110;23;20000;-94
2023/10/17 12:48:18;;;;;;;371.77;337.20;;;;;;;;;;6219997;23;20083;-94
2023/10/17 12:50:51;;;;;;;317.13;292.70;;;;;;;;;;6220287;23;20008;-94
2023/10/17 12:53:30;;;;;;;257.52;238.52;;;;;;;;;;6197937;23;20346;-95
2023/10/17 12:55:56;;;;;;;312.25;287.10;;;;;;;;;;6220267;23;20000;-94
2023/10/17 12:58:25;;;;;;;417.85;378.98;;;;;;;;;;6220446;23;20095;-94
2023/10/17 13:00:51;;;;;;;351.73;320.15;;;;;;;;;;6212670;23;20004;-94
2023/10/17 13:03:18;;;;;;;356.92;326.30;;;;;;;;;;6220173;23;20460;-95
2023/10/17 13:05:45;;;;;;;445.02;407.13;;;;;;;;;;6218341;23;20418;-95
2023/10/17 13:08:14;;;;;;;335.60;306.35;;;;;;;;;;6220289;23;20004;-94
2023/10/17 13:10:40;;;;;;;247.52;229.60;;;;;;;;;;6220609;23;20433;-95
2023/10/17 13:13:06;;;;;;;243.18;225.80;;;;;;;;;;6220649;23;20004;-96
2023/10/17 13:15:39;;;;;;;286.00;265.30;;;;;;;;;;6220174;23;20038;-96
2023/10/17 13:18:07;;;;;;;287.27;265.15;;;;;;;;;;6247441;22;20008;-94
2023/10/17 13:20:37;;;;;;;281.23;259.55;;;;;;;;;;6235109;23;20035;-95
2023/10/17 13:23:03;;;;;;;355.27;323.88;;;;;;;;;;6222513;23;20023;-95
2023/10/17 13:25:39;;;;;;;321.35;295.63;;;;;;;;;;6223200;23;20050;-95
2023/10/17 13:28:08;;;;;;;268.17;248.13;;;;;;;;;;6222271;23;20000;-95
2023/10/17 13:30:34;;;;;;;278.58;257.17;;;;;;;;;;6222143;23;20012;-95
2023/10/17 13:33:06;;;;;;;467.33;422.55;;;;;;;;;;6198834;23;20000;-95
2023/10/17 13:35:39;;;;;;;297.38;273.30;;;;;;;;;;6221655;23;20061;-96
2023/10/17 13:38:05;;;;;;;280.33;258.27;;;;;;;;;;6217262;23;20017;-95
2023/10/17 13:40:34;;;;;;;343.17;313.95;;;;;;;;;;6217712;23;20008;-94
2023/10/17 13:43:07;;;;;;;312.60;287.10;;;;;;;;;;6217448;23;20008;-95
2023/10/17 13:45:42;;;;;;;289.10;267.33;;;;;;;;;;6217169;23;20009;-93
2023/10/17 13:48:11;;;;;;;311.75;286.33;;;;;;;;;;6217384;23;20035;-95
2023/10/17 13:54:41;;;;;;;288.40;266.10;;;;;;;;;;6017017;23;20465;-96
2023/10/17 13:57:12;;;;;;;298.27;274.10;;;;;;;;;;5959432;24;20009;-94
2023/10/17 14:03:06;;;;;;;323.88;298.13;;;;;;;;;;5972434;23;20721;-94
2023/10/17 14:05:32;;;;;;;376.92;344.13;;;;;;;;;;6041945;23;20418;-96
2023/10/17 14:08:08;;;;;;;389.90;352.75;;;;;;;;;;6073897;23;20033;-96
2023/10/17 14:17:06;;;;;;;285.58;264.58;;;;;;;;;;5991503;24;20012;-96
2023/10/17 14:23:16;;;;;;;321.92;295.88;;;;;;;;;;5995333;23;20099;-95
2023/10/17 14:28:41;;;;;;;287.50;264.92;;;;;;;;;;6218974;23;20457;-95
2023/10/17 14:36:48;;;;;;;250.40;231.75;;;;;;;;;;6242990;22;20004;-94
2023/10/17 14:39:14;;;;;;;304.67;281.48;;;;;;;;;;6241092;23;20012;-95
2023/10/17 14:41:44;;;;;;;245.57;227.52;;;;;;;;;;6232476;23;20083;-94
2023/10/17 14:44:15;;;;;;;281.85;260.65;;;;;;;;;;6217234;23;20047;-95
2023/10/17 14:46:47;;;;;;;260.55;241.70;;;;;;;;;;6191550;23;20055;-95
2023/10/17 14:49:37;;;;;;;272.60;251.33;;;;;;;;;;6216821;23;20016;-94
2023/10/17 14:52:11;;;;;;;253.57;234.93;;;;;;;;;;6217294;23;20005;-94
2023/10/17 14:55:05;;;;;;;298.20;275.25;;;;;;;;;;6215911;23;20104;-93
2023/10/17 14:57:58;;;;;;;299.77;276.33;;;;;;;;;;6215963;23;20008;-95
2023/10/17 15:00:24;;;;;;;287.27;265.40;;;;;;;;;;6216907;23;20008;-94
2023/10/17 15:03:13;;;;;;;278.55;257.73;;;;;;;;;;6218170;23;20024;-96
2023/10/17 15:05:43;;;;;;;308.92;284.95;;;;;;;;;;6163824;23;20004;-95
2023/10/17 15:08:25;;;;;;;288.08;265.77;;;;;;;;;;6217899;23;20032;-96
2023/10/17 15:13:42;;;;;;;246.93;228.80;;;;;;;;;;6126273;23;20081;-93
2023/10/17 15:16:15;;;;;;;342.02;315.05;;;;;;;;;;6102124;23;20423;-94
2023/10/17 15:18:41;;;;;;;295.33;271.63;;;;;;;;;;6193011;23;20008;-96
2023/10/17 15:21:30;;;;;;;289.00;266.88;;;;;;;;;;6217298;23;20011;-95
2023/10/17 15:24:18;;;;;;;257.70;238.32;;;;;;;;;;6217686;23;20036;-92
2023/10/17 15:26:49;;;;;;;291.27;269.75;;;;;;;;;;6217495;23;20005;-94
2023/10/17 15:29:31;;;;;;;298.13;275.13;;;;;;;;;;6221181;23;20485;-93
2023/10/17 15:32:01;;;;;;;354.17;324.80;;;;;;;;;;6227457;23;20450;-95
2023/10/17 15:34:48;;;;;;;268.23;247.63;;;;;;;;;;6221872;23;20005;-93
2023/10/17 15:37:17;;;;;;;273.67;253.35;;;;;;;;;;6221234;23;20027;-94
2023/10/17 15:39:44;;;;;;;328.20;302.75;;;;;;;;;;6220465;23;20005;-93
2023/10/17 15:42:14;;;;;;;321.08;295.88;;;;;;;;;;6221124;23;20008;-94
2023/10/17 15:44:41;;;;;;;346.23;318.98;;;;;;;;;;6216689;23;20003;-94
2023/10/17 15:47:10;;;;;;;344.38;317.23;;;;;;;;;;6221233;23;20004;-93
2023/10/17 15:49:40;;;;;;;331.90;306.40;;;;;;;;;;6216847;23;20070;-95
2023/10/17 15:52:12;;;;;;;344.13;316.85;;;;;;;;;;6223941;23;20000;-95
2023/10/17 15:54:38;;;;;;;363.35;335.80;;;;;;;;;;6221491;23;20082;-94
2023/10/17 15:57:15;;;;;;;;;;;;;;;;;;;;;
2023/10/17 15:59:45;;;;;;;342.02;315.15;;;;;;;;;;6220260;23;20083;-95
2023/10/17 16:02:14;;;;;;;389.27;357.48;;;;;;;;;;6221469;23;20036;-94
2023/10/17 16:04:41;;;;;;;417.33;382.55;;;;;;;;;;6206109;23;20004;-93
2023/10/17 16:07:10;;;;;;;385.20;354.83;;;;;;;;;;6239217;23;20012;-94
2023/10/17 16:09:39;;;;;;;382.85;352.20;;;;;;;;;;6225225;23;20008;-95
2023/10/17 16:12:26;;;;;;;393.23;361.38;;;;;;;;;;6247786;23;20038;-94
2023/10/17 16:14:55;;;;;;;335.88;306.80;;;;;;;;;;6220808;23;20000;-96
2023/10/17 16:17:44;;;;;;;428.02;393.00;;;;;;;;;;6225315;23;20004;-96
2023/10/17 16:20:22;;;;;;;328.23;299.33;;;;;;;;;;6220718;23;20378;-93
2023/10/17 16:22:58;;;;;;;367.88;337.58;;;;;;;;;;6221307;23;20004;-94
2023/10/17 16:32:09;;;;;;;;;;;;;;;;;;;;;
2023/10/17 16:41:17;;;;;;;367.20;330.70;;;;;;;;;;6125915;23;20016;-93
2023/10/17 17:09:41;;;;;;;;;;;;;;;;;;;;;
2023/10/17 17:15:55;;;;;;;397.10;358.00;;;;;;;;;;6100700;23;20005;-95
2023/10/17 17:19:18;;;;;;;;;;;;;;;;;;;;;
2023/10/17 17:28:09;;;;;;;405.08;365.95;;;;;;;;;;6125489;23;20096;-95
2023/10/17 17:34:34;;;;;;;;;;;;;;;;;;;;;
2023/10/17 17:42:40;;;;;;;424.52;384.83;;;;;;;;;;6266588;23;20024;-95
2023/10/17 17:51:40;;;;;;;451.20;406.83;;;;;;;;;;6189042;23;20075;-94
2023/10/17 17:57:27;;;;;;;421.65;380.48;;;;;;;;;;6192962;23;20016;-94
2023/10/17 18:00:26;;;;;;;492.98;447.58;;;;;;;;;;6193241;23;20032;-95
2023/10/17 18:09:57;;;;;;;529.97;479.85;;;;;;;;;;6200931;23;20032;-96
2023/10/17 18:15:14;;;;;;;498.17;453.90;;;;;;;;;;6249470;22;20484;-96
2023/10/17 18:17:51;;;;;;;;;;;;;;;;;;;;;
2023/10/17 18:20:23;;;;;;;503.27;455.73;;;;;;;;;;6259248;23;20028;-95
2023/10/17 18:22:49;;;;;;;563.30;509.40;;;;;;;;;;6226073;23;20062;-95
2023/10/17 18:25:28;;;;;;;552.28;500.00;;;;;;;;;;6223553;23;19996;-96
2023/10/17 18:31:17;;;;;;;543.00;493.15;;;;;;;;;;6098440;23;20022;-96
2023/10/17 18:34:00;;;;;;;;;;;;;;;;;;;;;
2023/10/17 18:36:27;;;;;;;582.70;523.30;;;;;;;;;;6221477;23;20087;-94
2023/10/17 18:39:03;;;;;;;557.78;502.48;;;;;;;;;;6222277;23;20070;-96
2023/10/17 18:41:41;;;;;;;531.55;477.80;;;;;;;;;;6221708;23;20000;-96
2023/10/17 18:45:08;;;;;;;;;;;;;;;;;;;;;
2023/10/17 18:47:02;;;;;;;563.42;505.98;;;;;;;;;;6211031;23;20330;-94
2023/10/17 18:52:37;;;;;;;568.72;510.63;;;;;;;;;;6248429;23;20015;-95
2023/10/17 18:55:10;;;;;;;604.28;544.95;;;;;;;;;;6221648;23;20004;-95
2023/10/17 18:57:45;;;;;;;591.10;530.05;;;;;;;;;;6221927;23;20012;-96
2023/10/17 19:00:14;;;;;;;581.15;523.03;;;;;;;;;;6221609;23;20019;-95
2023/10/17 19:06:20;;;;;;;540.15;484.67;;;;;;;;;;6250029;23;20070;-94
2023/10/17 19:09:02;;;;;;;588.20;528.05;;;;;;;;;;6223525;23;20015;-94
2023/10/17 19:14:15;;;;;;;575.78;514.35;;;;;;;;;;6242507;23;20106;-96
2023/10/17 19:23:04;;;;;;;551.47;494.25;;;;;;;;;;6068046;23;20108;-94
2023/10/17 19:26:15;;;;;;;;;;;;;;;;;;;;;
2023/10/17 19:29:05;;;;;;;613.28;550.08;;;;;;;;;;6068594;23;20089;-95
2023/10/17 19:31:40;;;;;;;603.92;544.35;;;;;;;;;;6051913;23;20014;-96
2023/10/17 19:34:43;;;;;;;;;;;;;;;;;;;;;
2023/10/17 19:40:59;;;;;;;529.35;475.45;;;;;;;;;;6052695;23;20250;-94
2023/10/17 20:09:07;;;;;;;521.05;464.85;;;;;;;;;;6096833;23;20038;-94
2023/10/17 20:18:20;;;;;;;388.45;345.63;;;;;;;;;;6159519;23;20001;-95
2023/10/17 20:21:22;;;;;;;442.08;393.95;;;;;;;;;;6221248;23;20023;-95
2023/10/17 20:24:20;;;;;;;393.70;350.88;;;;;;;;;;6215702;23;20444;-96
2023/10/17 20:36:30;;;;;;;317.70;282.55;;;;;;;;;;6022649;23;20200;-96
2023/10/17 20:38:59;;;;;;;449.30;397.52;;;;;;;;;;6087759;23;19994;-95
2023/10/17 20:41:33;;;;;;;424.70;378.42;;;;;;;;;;6096926;23;20006;-94
2023/10/17 20:44:05;;;;;;;344.40;308.35;;;;;;;;;;6099202;23;20023;-93
2023/10/17 20:46:39;;;;;;;377.77;336.58;;;;;;;;;;6124264;23;20008;-95
2023/10/17 20:49:15;;;;;;;368.52;327.42;;;;;;;;;;6221306;23;20032;-96
2023/10/17 20:51:47;;;;;;;340.92;303.48;;;;;;;;;;6221083;23;20012;-96
2023/10/17 20:54:31;;;;;;;337.48;299.98;;;;;;;;;;6221338;23;20011;-96
2023/10/17 20:56:58;;;;;;;349.45;311.50;;;;;;;;;;6240709;23;20329;-94
2023/10/17 20:59:37;;;;;;;385.13;342.92;;;;;;;;;;6222449;23;20100;-96
2023/10/17 21:05:08;;;;;;;199.35;178.55;;;;;;;;;;6271056;22;19996;-96
2023/10/17 21:07:53;;;;;;;316.58;279.23;;;;;;;;;;6239583;23;20016;-95